Melville, MT

7:43 AM MST on December 26, 2014 (GMT -0700)
APRSWXNET Big Timber MT US | Change Station
CLOSE
Current Station
Personal Weather Station
Location: Big Timber, MT
Elevation: 4238 ft
Nearby Weather Stations

Elev 4238 ft 45.82 °N, 109.96 °W | Updated 25 minutes ago

Overcast
Overcast
5 °F
Feels Like 5 °F
N
0
Wind Variable Wind from South
Gusts 2.0 mph

Today
High -- | Low -- °F
--% Chance of Precip.
Yesterday
High -- | Low -- °F
Precip. -- in
8:00 AM 4:39 PM
Waxing Crescent, 26% visible
Pressure 30.19 in
Visibility 10.0 miles
Clouds Overcast 6000 ft
Windchill 5 °F
Dew Point 4 °F
Humidity 97%
Rainfall 0.02 in
Snow Depth Not available.
UV 0 out of 12
Pollen .10 out of 12
Air Quality Not available.
Flu Activity Not available.
METAR KLVM 261353Z AUTO 31005KT 10SM OVC060 M11/M14 A2999 RMK AO2 SLP224 T11111139

More Conditions Fewer Conditions

Pressure 30.19 in
Visibility 10.0 miles
Clouds Overcast 6000 ft
Windchill 5 °F
Dew Point 4 °F
Humidity 97%
Rainfall 0.02 in
Snow Depth Not available.
UV 0 out of 12
Pollen .10 out of 12
Air Quality Not available.
Flu Activity Not available.
METAR KLVM 261353Z AUTO 31005KT 10SM OVC060 M11/M14 A2999 RMK AO2 SLP224 T11111139

More Conditions Fewer Conditions

10-Day Weather Forecast

Almanac

Astronomy

Dec. 26, 2014 Rise Set
Actual Time
Civil Twilight
Nautical Twilight
Astronomical Twilight
Moon
Length of Visible Light
Length of Day
Tomorrow will be .
, % of the Moon is Illuminated

Today's Extremes

State Highs State Lows

Community

WunderPhotos

Upload Photos

1,780,599 photos uploaded!

WunderBlogs® & News

Nearby

Air Quality

  Air Quality AQ Index Pollutant
Not available.

Snow Depth

Station Depth Elevation

Earthquake Activity

City Distance Mag. Time & Date
Minimum magnitude displayed is 2.5.

Coastal Water Temperatures

Place Temperature

Nearby Weather Stations